New Orleans, Louisiana
Current Conditions -  °F | °C
As of 12:53 PM on Tuesday 27 Jan 2015 (Local Time) from KNEW Reporting Station
Clear Clear  
Wind Chill: 15°   Ceiling: Unl
Heat Index: 15°   Visibility: 10mi
Dew Point:   Wind: 7mph
Humidity: 64%   Direction: 260°W
Pressure: 30.1"   Gusts: NA
Location:  29.95°N, 90.08°W
Report Text: KNEW 271853Z AUTO 26006KT 10SM CLR 15/08 A3010 RMK AO2 SLP186 T01500083 TSNO
Loading
Personal Weather Stations






























Interactive Weather Map New forecast layout! Learn more

10-Day Weather Forecast

Advertisements
Track Severe Weather on mobile